sensor_id;sensor_type;location;lat;lon;timestamp;pressure;altitude;pressure_sealevel;temperature;humidity
31195;BME280;17819;36.316;-93.164;2022-10-13T00:00:03;114490.28;;;-146.31;24.74
31195;BME280;17819;36.316;-93.164;2022-10-13T00:02:15;114490.28;;;-146.31;25.80
31195;BME280;17819;36.316;-93.164;2022-10-13T00:04:19;114490.28;;;-146.31;26.70
31195;BME280;17819;36.316;-93.164;2022-10-13T00:06:24;114490.28;;;-146.31;25.64
31195;BME280;17819;36.316;-93.164;2022-10-13T00:08:28;114490.28;;;-146.31;25.89
31195;BME280;17819;36.316;-93.164;2022-10-13T00:10:34;114490.28;;;-146.31;25.81
31195;BME280;17819;36.316;-93.164;2022-10-13T00:12:40;114490.28;;;-146.31;27.07
31195;BME280;17819;36.316;-93.164;2022-10-13T00:14:45;114490.28;;;-146.31;30.50
31195;BME280;17819;36.316;-93.164;2022-10-13T00:16:48;114490.28;;;-146.31;27.68
31195;BME280;17819;36.316;-93.164;2022-10-13T00:18:52;114490.28;;;-146.31;27.80
31195;BME280;17819;36.316;-93.164;2022-10-13T00:20:57;114490.28;;;-146.31;29.84
31195;BME280;17819;36.316;-93.164;2022-10-13T00:23:02;114490.28;;;-146.31;31.36
31195;BME280;17819;36.316;-93.164;2022-10-13T00:25:05;114490.28;;;-146.31;32.34
31195;BME280;17819;36.316;-93.164;2022-10-13T00:27:09;114490.28;;;-146.31;30.55
31195;BME280;17819;36.316;-93.164;2022-10-13T00:29:13;114490.28;;;-146.31;31.19
31195;BME280;17819;36.316;-93.164;2022-10-13T00:31:38;114490.28;;;-146.31;32.95
31195;BME280;17819;36.316;-93.164;2022-10-13T00:33:42;114490.28;;;-146.31;31.78
31195;BME280;17819;36.316;-93.164;2022-10-13T00:35:47;114490.28;;;-146.31;33.49
31195;BME280;17819;36.316;-93.164;2022-10-13T00:37:51;114490.28;;;-146.31;33.71
31195;BME280;17819;36.316;-93.164;2022-10-13T00:39:55;114490.28;;;-146.31;33.64
31195;BME280;17819;36.316;-93.164;2022-10-13T00:41:59;114490.28;;;-146.31;33.75
31195;BME280;17819;36.316;-93.164;2022-10-13T00:44:52;114490.28;;;-146.31;35.11
31195;BME280;17819;36.316;-93.164;2022-10-13T00:46:33;114490.28;;;-146.31;37.68
31195;BME280;17819;36.316;-93.164;2022-10-13T00:48:37;114490.28;;;-146.31;40.13
31195;BME280;17819;36.316;-93.164;2022-10-13T00:50:43;114490.28;;;-146.31;37.38
31195;BME280;17819;36.316;-93.164;2022-10-13T00:52:48;114490.28;;;-146.31;40.88
31195;BME280;17819;36.316;-93.164;2022-10-13T00:54:55;114490.28;;;-146.31;40.88
31195;BME280;17819;36.316;-93.164;2022-10-13T00:56:59;114490.28;;;-146.31;40.83
31195;BME280;17819;36.316;-93.164;2022-10-13T00:59:08;114490.28;;;-146.31;41.07
31195;BME280;17819;36.316;-93.164;2022-10-13T01:01:14;114490.28;;;-146.31;40.34
31195;BME280;17819;36.316;-93.164;2022-10-13T01:03:19;114490.28;;;-146.31;40.21
31195;BME280;17819;36.316;-93.164;2022-10-13T01:05:23;114490.28;;;-146.31;40.46
31195;BME280;17819;36.316;-93.164;2022-10-13T01:07:28;114490.28;;;-146.31;39.39
31195;BME280;17819;36.316;-93.164;2022-10-13T01:09:35;114490.28;;;-146.31;44.20
31195;BME280;17819;36.316;-93.164;2022-10-13T01:11:57;114490.28;;;-146.31;44.60
31195;BME280;17819;36.316;-93.164;2022-10-13T01:14:12;114490.28;;;-146.31;44.65
31195;BME280;17819;36.316;-93.164;2022-10-13T01:16:23;114490.28;;;-146.31;45.45
31195;BME280;17819;36.316;-93.164;2022-10-13T01:21:14;114490.28;;;-146.31;47.49
31195;BME280;17819;36.316;-93.164;2022-10-13T01:23:23;114490.28;;;-146.31;47.65
31195;BME280;17819;36.316;-93.164;2022-10-13T01:25:47;114490.28;;;-146.31;46.39
31195;BME280;17819;36.316;-93.164;2022-10-13T01:30:16;114490.28;;;-146.31;50.58
31195;BME280;17819;36.316;-93.164;2022-10-13T01:32:30;114490.28;;;-146.31;51.09
31195;BME280;17819;36.316;-93.164;2022-10-13T01:34:51;114490.28;;;-146.31;48.86
31195;BME280;17819;36.316;-93.164;2022-10-13T01:42:00;114490.28;;;-146.31;53.76
31195;BME280;17819;36.316;-93.164;2022-10-13T01:44:24;114490.28;;;-146.31;56.64
31195;BME280;17819;36.316;-93.164;2022-10-13T01:46:30;114490.28;;;-146.31;59.90
31195;BME280;17819;36.316;-93.164;2022-10-13T01:48:34;114490.28;;;-146.31;56.92
31195;BME280;17819;36.316;-93.164;2022-10-13T01:50:40;114490.28;;;-146.31;51.86
31195;BME280;17819;36.316;-93.164;2022-10-13T01:52:44;114490.28;;;-146.31;50.23
31195;BME280;17819;36.316;-93.164;2022-10-13T01:54:49;114490.28;;;-146.31;48.59
31195;BME280;17819;36.316;-93.164;2022-10-13T01:56:54;114490.28;;;-146.31;48.30
31195;BME280;17819;36.316;-93.164;2022-10-13T01:58:58;114490.28;;;-146.31;48.49
31195;BME280;17819;36.316;-93.164;2022-10-13T02:03:30;114490.28;;;-146.31;48.85
31195;BME280;17819;36.316;-93.164;2022-10-13T02:10:19;114490.28;;;-146.31;56.31
31195;BME280;17819;36.316;-93.164;2022-10-13T02:12:36;114490.28;;;-146.31;56.91
31195;BME280;17819;36.316;-93.164;2022-10-13T02:14:41;114490.28;;;-146.31;51.83
31195;BME280;17819;36.316;-93.164;2022-10-13T02:16:46;114490.28;;;-146.31;56.43
31195;BME280;17819;36.316;-93.164;2022-10-13T02:18:51;114490.28;;;-146.31;53.15
31195;BME280;17819;36.316;-93.164;2022-10-13T02:20:55;114490.28;;;-146.31;52.93
31195;BME280;17819;36.316;-93.164;2022-10-13T02:23:03;114490.28;;;-146.31;53.72
31195;BME280;17819;36.316;-93.164;2022-10-13T02:25:09;114490.28;;;-146.31;57.16
31195;BME280;17819;36.316;-93.164;2022-10-13T02:27:13;114490.28;;;-146.31;58.25
31195;BME280;17819;36.316;-93.164;2022-10-13T02:29:17;114490.28;;;-146.31;65.91
31195;BME280;17819;36.316;-93.164;2022-10-13T02:31:21;114490.28;;;-146.31;66.32
31195;BME280;17819;36.316;-93.164;2022-10-13T02:33:25;114490.28;;;-146.31;62.70
31195;BME280;17819;36.316;-93.164;2022-10-13T02:35:29;114490.28;;;-146.31;66.11
31195;BME280;17819;36.316;-93.164;2022-10-13T02:37:35;114490.28;;;-146.31;68.71
31195;BME280;17819;36.316;-93.164;2022-10-13T02:39:39;114490.28;;;-146.31;70.27
31195;BME280;17819;36.316;-93.164;2022-10-13T02:41:45;114490.28;;;-146.31;71.61
31195;BME280;17819;36.316;-93.164;2022-10-13T02:43:49;114490.28;;;-146.31;73.11
31195;BME280;17819;36.316;-93.164;2022-10-13T02:45:54;114490.28;;;-146.31;72.79
31195;BME280;17819;36.316;-93.164;2022-10-13T02:47:58;114490.28;;;-146.31;72.12
31195;BME280;17819;36.316;-93.164;2022-10-13T02:50:02;114490.28;;;-146.31;73.74
31195;BME280;17819;36.316;-93.164;2022-10-13T02:52:07;114490.28;;;-146.31;74.48
31195;BME280;17819;36.316;-93.164;2022-10-13T02:54:15;114490.28;;;-146.31;75.30
31195;BME280;17819;36.316;-93.164;2022-10-13T02:56:19;114490.28;;;-146.31;74.53
31195;BME280;17819;36.316;-93.164;2022-10-13T02:58:23;114490.28;;;-146.31;75.67
31195;BME280;17819;36.316;-93.164;2022-10-13T03:00:27;114490.28;;;-146.31;76.20
31195;BME280;17819;36.316;-93.164;2022-10-13T03:02:31;114490.28;;;-146.31;76.89
31195;BME280;17819;36.316;-93.164;2022-10-13T03:04:34;114490.28;;;-146.31;76.44
31195;BME280;17819;36.316;-93.164;2022-10-13T03:06:37;114490.28;;;-146.31;79.26
31195;BME280;17819;36.316;-93.164;2022-10-13T03:08:43;114490.28;;;-146.31;75.50
31195;BME280;17819;36.316;-93.164;2022-10-13T03:10:47;114490.28;;;-146.31;73.59
31195;BME280;17819;36.316;-93.164;2022-10-13T03:12:50;114490.28;;;-146.31;73.40
31195;BME280;17819;36.316;-93.164;2022-10-13T03:14:54;114490.28;;;-146.31;74.17
31195;BME280;17819;36.316;-93.164;2022-10-13T03:16:58;114490.28;;;-146.31;72.70
31195;BME280;17819;36.316;-93.164;2022-10-13T03:19:01;114490.28;;;-146.31;72.79
31195;BME280;17819;36.316;-93.164;2022-10-13T03:21:05;114490.28;;;-146.31;74.27
31195;BME280;17819;36.316;-93.164;2022-10-13T03:23:13;114490.28;;;-146.31;77.56
31195;BME280;17819;36.316;-93.164;2022-10-13T03:25:16;114490.28;;;-146.31;78.40
31195;BME280;17819;36.316;-93.164;2022-10-13T03:27:20;114490.28;;;-146.31;79.69
31195;BME280;17819;36.316;-93.164;2022-10-13T03:29:23;114490.28;;;-146.31;80.50
31195;BME280;17819;36.316;-93.164;2022-10-13T03:31:27;114490.28;;;-146.31;79.92
31195;BME280;17819;36.316;-93.164;2022-10-13T03:33:35;114490.28;;;-146.31;77.72
31195;BME280;17819;36.316;-93.164;2022-10-13T03:35:39;114490.28;;;-146.31;76.83
31195;BME280;17819;36.316;-93.164;2022-10-13T03:37:42;114490.28;;;-146.31;74.87
31195;BME280;17819;36.316;-93.164;2022-10-13T03:39:46;114490.28;;;-146.31;74.50
31195;BME280;17819;36.316;-93.164;2022-10-13T03:41:50;114490.28;;;-146.31;76.14
31195;BME280;17819;36.316;-93.164;2022-10-13T03:43:54;114490.28;;;-146.31;75.04
31195;BME280;17819;36.316;-93.164;2022-10-13T03:45:58;114490.28;;;-146.31;78.21
31195;BME280;17819;36.316;-93.164;2022-10-13T03:48:02;114490.28;;;-146.31;77.07
31195;BME280;17819;36.316;-93.164;2022-10-13T03:50:06;114490.28;;;-146.31;77.73
31195;BME280;17819;36.316;-93.164;2022-10-13T03:52:10;114490.28;;;-146.31;77.04
31195;BME280;17819;36.316;-93.164;2022-10-13T03:54:14;114490.28;;;-146.31;77.73
31195;BME280;17819;36.316;-93.164;2022-10-13T03:56:21;114490.28;;;-146.31;76.83
31195;BME280;17819;36.316;-93.164;2022-10-13T03:58:26;114490.28;;;-146.31;71.85
31195;BME280;17819;36.316;-93.164;2022-10-13T04:00:34;114490.28;;;-146.31;64.32
31195;BME280;17819;36.316;-93.164;2022-10-13T04:02:38;114490.28;;;-146.31;56.96
31195;BME280;17819;36.316;-93.164;2022-10-13T04:04:41;114490.28;;;-146.31;56.36
31195;BME280;17819;36.316;-93.164;2022-10-13T04:06:45;114490.28;;;-146.31;58.55
31195;BME280;17819;36.316;-93.164;2022-10-13T04:08:48;114490.28;;;-146.31;57.16
31195;BME280;17819;36.316;-93.164;2022-10-13T04:10:59;114490.28;;;-146.31;57.17
31195;BME280;17819;36.316;-93.164;2022-10-13T04:13:02;114490.28;;;-146.31;56.12
31195;BME280;17819;36.316;-93.164;2022-10-13T04:15:06;114490.28;;;-146.31;59.45
31195;BME280;17819;36.316;-93.164;2022-10-13T04:17:13;114490.28;;;-146.31;58.46
31195;BME280;17819;36.316;-93.164;2022-10-13T04:19:17;114490.28;;;-146.31;59.59
31195;BME280;17819;36.316;-93.164;2022-10-13T04:21:21;114490.28;;;-146.31;61.13
31195;BME280;17819;36.316;-93.164;2022-10-13T04:23:25;114490.28;;;-146.31;61.80
31195;BME280;17819;36.316;-93.164;2022-10-13T04:25:28;114490.28;;;-146.31;64.58
31195;BME280;17819;36.316;-93.164;2022-10-13T04:27:32;114490.28;;;-146.31;65.81
31195;BME280;17819;36.316;-93.164;2022-10-13T04:29:41;114490.28;;;-146.31;64.70
31195;BME280;17819;36.316;-93.164;2022-10-13T04:31:45;114490.28;;;-146.31;63.14
31195;BME280;17819;36.316;-93.164;2022-10-13T04:33:49;114490.28;;;-146.31;63.07
31195;BME280;17819;36.316;-93.164;2022-10-13T04:35:53;114490.28;;;-146.31;61.01
31195;BME280;17819;36.316;-93.164;2022-10-13T04:38:12;114490.28;;;-146.31;59.06
31195;BME280;17819;36.316;-93.164;2022-10-13T04:40:16;114490.28;;;-146.31;57.87
31195;BME280;17819;36.316;-93.164;2022-10-13T04:42:20;114490.28;;;-146.31;58.35
31195;BME280;17819;36.316;-93.164;2022-10-13T04:44:24;114490.28;;;-146.31;57.82
31195;BME280;17819;36.316;-93.164;2022-10-13T04:46:30;114490.28;;;-146.31;55.19
31195;BME280;17819;36.316;-93.164;2022-10-13T04:48:33;114490.28;;;-146.31;54.78
31195;BME280;17819;36.316;-93.164;2022-10-13T04:50:37;114490.28;;;-146.31;54.08
31195;BME280;17819;36.316;-93.164;2022-10-13T04:52:40;114490.28;;;-146.31;55.38
31195;BME280;17819;36.316;-93.164;2022-10-13T04:54:43;114490.28;;;-146.31;54.22
31195;BME280;17819;36.316;-93.164;2022-10-13T04:56:47;114490.28;;;-146.31;54.90
31195;BME280;17819;36.316;-93.164;2022-10-13T04:58:50;114490.28;;;-146.31;53.32
31195;BME280;17819;36.316;-93.164;2022-10-13T05:00:54;114490.28;;;-146.31;54.34
31195;BME280;17819;36.316;-93.164;2022-10-13T05:03:00;114490.28;;;-146.31;53.83
31195;BME280;17819;36.316;-93.164;2022-10-13T05:05:09;114490.28;;;-146.31;53.67
31195;BME280;17819;36.316;-93.164;2022-10-13T05:07:13;114490.28;;;-146.31;53.49
31195;BME280;17819;36.316;-93.164;2022-10-13T05:09:19;114490.28;;;-146.31;54.81
31195;BME280;17819;36.316;-93.164;2022-10-13T05:11:24;114490.28;;;-146.31;53.78
31195;BME280;17819;36.316;-93.164;2022-10-13T05:13:28;114490.28;;;-146.31;52.95
31195;BME280;17819;36.316;-93.164;2022-10-13T05:15:32;114490.28;;;-146.31;53.15
31195;BME280;17819;36.316;-93.164;2022-10-13T05:17:36;114490.28;;;-146.31;53.28
31195;BME280;17819;36.316;-93.164;2022-10-13T05:19:41;114490.28;;;-146.31;52.81
31195;BME280;17819;36.316;-93.164;2022-10-13T05:21:47;114490.28;;;-146.31;52.31
31195;BME280;17819;36.316;-93.164;2022-10-13T05:23:51;114490.28;;;-146.31;52.07
31195;BME280;17819;36.316;-93.164;2022-10-13T05:25:59;114490.28;;;-146.31;50.91
31195;BME280;17819;36.316;-93.164;2022-10-13T05:28:03;114490.28;;;-146.31;52.16
31195;BME280;17819;36.316;-93.164;2022-10-13T05:30:07;114490.28;;;-146.31;51.12
31195;BME280;17819;36.316;-93.164;2022-10-13T05:32:11;114490.28;;;-146.31;51.38
31195;BME280;17819;36.316;-93.164;2022-10-13T05:34:17;114490.28;;;-146.31;49.62
31195;BME280;17819;36.316;-93.164;2022-10-13T05:36:24;114490.28;;;-146.31;49.68
31195;BME280;17819;36.316;-93.164;2022-10-13T05:38:28;114490.28;;;-146.31;49.65
31195;BME280;17819;36.316;-93.164;2022-10-13T05:40:32;114490.28;;;-146.31;50.34
31195;BME280;17819;36.316;-93.164;2022-10-13T05:42:36;114490.28;;;-146.31;50.50
31195;BME280;17819;36.316;-93.164;2022-10-13T05:44:41;114490.28;;;-146.31;51.73
31195;BME280;17819;36.316;-93.164;2022-10-13T05:46:44;114490.28;;;-146.31;51.69
31195;BME280;17819;36.316;-93.164;2022-10-13T05:48:48;114490.28;;;-146.31;51.79
31195;BME280;17819;36.316;-93.164;2022-10-13T05:50:51;114490.28;;;-146.31;51.67
31195;BME280;17819;36.316;-93.164;2022-10-13T05:52:55;114490.28;;;-146.31;52.67
31195;BME280;17819;36.316;-93.164;2022-10-13T05:55:00;114490.28;;;-146.31;52.81
31195;BME280;17819;36.316;-93.164;2022-10-13T05:57:15;114490.28;;;-146.31;52.77
31195;BME280;17819;36.316;-93.164;2022-10-13T05:59:20;114490.28;;;-146.31;51.44
31195;BME280;17819;36.316;-93.164;2022-10-13T06:01:29;114490.28;;;-146.31;51.06
31195;BME280;17819;36.316;-93.164;2022-10-13T06:03:34;114490.28;;;-146.31;50.67
31195;BME280;17819;36.316;-93.164;2022-10-13T06:05:38;114490.28;;;-146.31;50.49
31195;BME280;17819;36.316;-93.164;2022-10-13T06:07:42;114490.28;;;-146.31;50.81
31195;BME280;17819;36.316;-93.164;2022-10-13T06:09:49;114490.28;;;-146.31;50.81
31195;BME280;17819;36.316;-93.164;2022-10-13T06:11:52;114490.28;;;-146.31;50.92
31195;BME280;17819;36.316;-93.164;2022-10-13T06:13:56;114490.28;;;-146.31;51.21
31195;BME280;17819;36.316;-93.164;2022-10-13T06:15:59;114490.28;;;-146.31;50.63
31195;BME280;17819;36.316;-93.164;2022-10-13T06:18:06;114490.28;;;-146.31;51.04
31195;BME280;17819;36.316;-93.164;2022-10-13T06:20:09;114490.28;;;-146.31;51.78
31195;BME280;17819;36.316;-93.164;2022-10-13T06:22:13;114490.28;;;-146.31;51.73
31195;BME280;17819;36.316;-93.164;2022-10-13T06:24:18;114490.28;;;-146.31;53.04
31195;BME280;17819;36.316;-93.164;2022-10-13T06:26:21;114490.28;;;-146.31;53.44
31195;BME280;17819;36.316;-93.164;2022-10-13T06:28:25;114490.28;;;-146.31;54.13
31195;BME280;17819;36.316;-93.164;2022-10-13T06:30:29;114490.28;;;-146.31;54.34
31195;BME280;17819;36.316;-93.164;2022-10-13T06:32:32;114490.28;;;-146.31;55.09
31195;BME280;17819;36.316;-93.164;2022-10-13T06:34:36;114490.28;;;-146.31;55.39
31195;BME280;17819;36.316;-93.164;2022-10-13T06:36:40;114490.28;;;-146.31;55.82
31195;BME280;17819;36.316;-93.164;2022-10-13T06:38:46;114490.28;;;-146.31;56.61
31195;BME280;17819;36.316;-93.164;2022-10-13T06:40:52;114490.28;;;-146.31;56.85
31195;BME280;17819;36.316;-93.164;2022-10-13T06:42:57;114490.28;;;-146.31;56.43
31195;BME280;17819;36.316;-93.164;2022-10-13T06:45:00;114490.28;;;-146.31;56.91
31195;BME280;17819;36.316;-93.164;2022-10-13T06:47:04;114490.28;;;-146.31;58.04
31195;BME280;17819;36.316;-93.164;2022-10-13T06:49:10;114490.28;;;-146.31;57.51
31195;BME280;17819;36.316;-93.164;2022-10-13T06:51:14;114490.28;;;-146.31;57.79
31195;BME280;17819;36.316;-93.164;2022-10-13T06:53:18;114490.28;;;-146.31;57.62
31195;BME280;17819;36.316;-93.164;2022-10-13T06:55:21;114490.28;;;-146.31;57.65
31195;BME280;17819;36.316;-93.164;2022-10-13T06:57:25;114490.28;;;-146.31;57.97
31195;BME280;17819;36.316;-93.164;2022-10-13T06:59:31;114490.28;;;-146.31;58.39
31195;BME280;17819;36.316;-93.164;2022-10-13T07:01:34;114490.28;;;-146.31;59.17
31195;BME280;17819;36.316;-93.164;2022-10-13T07:03:49;114490.28;;;-146.31;60.15
31195;BME280;17819;36.316;-93.164;2022-10-13T07:05:58;114490.28;;;-146.31;60.22
31195;BME280;17819;36.316;-93.164;2022-10-13T07:08:02;114490.28;;;-146.31;60.97
31195;BME280;17819;36.316;-93.164;2022-10-13T07:10:06;114490.28;;;-146.31;61.92
31195;BME280;17819;36.316;-93.164;2022-10-13T07:12:09;114490.28;;;-146.31;62.81
31195;BME280;17819;36.316;-93.164;2022-10-13T07:14:13;114490.28;;;-146.31;63.07
31195;BME280;17819;36.316;-93.164;2022-10-13T07:16:16;114490.28;;;-146.31;63.52
31195;BME280;17819;36.316;-93.164;2022-10-13T07:18:20;114490.28;;;-146.31;63.61
31195;BME280;17819;36.316;-93.164;2022-10-13T07:20:24;114490.28;;;-146.31;63.81
31195;BME280;17819;36.316;-93.164;2022-10-13T07:22:28;114490.28;;;-146.31;64.15
31195;BME280;17819;36.316;-93.164;2022-10-13T07:24:31;114490.28;;;-146.31;64.42
31195;BME280;17819;36.316;-93.164;2022-10-13T07:26:35;114490.28;;;-146.31;64.13
31195;BME280;17819;36.316;-93.164;2022-10-13T07:28:39;114490.28;;;-146.31;64.79
31195;BME280;17819;36.316;-93.164;2022-10-13T07:30:43;114490.28;;;-146.31;64.60
31195;BME280;17819;36.316;-93.164;2022-10-13T07:32:47;114490.28;;;-146.31;65.41
31195;BME280;17819;36.316;-93.164;2022-10-13T07:34:51;114490.28;;;-146.31;65.42
31195;BME280;17819;36.316;-93.164;2022-10-13T07:36:57;114490.28;;;-146.31;65.67
31195;BME280;17819;36.316;-93.164;2022-10-13T07:39:01;114490.28;;;-146.31;66.30
31195;BME280;17819;36.316;-93.164;2022-10-13T07:41:06;114490.28;;;-146.31;66.53
31195;BME280;17819;36.316;-93.164;2022-10-13T07:43:10;114490.28;;;-146.31;66.64
31195;BME280;17819;36.316;-93.164;2022-10-13T07:45:14;114490.28;;;-146.31;66.69
31195;BME280;17819;36.316;-93.164;2022-10-13T07:47:17;114490.28;;;-146.31;66.83
31195;BME280;17819;36.316;-93.164;2022-10-13T07:49:21;114490.28;;;-146.31;66.77
31195;BME280;17819;36.316;-93.164;2022-10-13T07:51:25;114490.28;;;-146.31;67.13
31195;BME280;17819;36.316;-93.164;2022-10-13T07:53:28;114490.28;;;-146.31;67.74
31195;BME280;17819;36.316;-93.164;2022-10-13T07:55:32;114490.28;;;-146.31;67.21
31195;BME280;17819;36.316;-93.164;2022-10-13T07:57:36;114490.28;;;-146.31;67.74
31195;BME280;17819;36.316;-93.164;2022-10-13T07:59:39;114490.28;;;-146.31;67.65
31195;BME280;17819;36.316;-93.164;2022-10-13T08:01:46;114490.28;;;-146.31;67.93
31195;BME280;17819;36.316;-93.164;2022-10-13T08:03:53;114490.28;;;-146.31;68.82
31195;BME280;17819;36.316;-93.164;2022-10-13T08:05:57;114490.28;;;-146.31;69.92
31195;BME280;17819;36.316;-93.164;2022-10-13T08:08:01;114490.28;;;-146.31;69.96
31195;BME280;17819;36.316;-93.164;2022-10-13T08:10:04;114490.28;;;-146.31;69.88
31195;BME280;17819;36.316;-93.164;2022-10-13T08:12:09;114490.28;;;-146.31;70.35
31195;BME280;17819;36.316;-93.164;2022-10-13T08:14:12;114490.28;;;-146.31;71.15
31195;BME280;17819;36.316;-93.164;2022-10-13T08:16:17;114490.28;;;-146.31;71.57
31195;BME280;17819;36.316;-93.164;2022-10-13T08:18:21;114490.28;;;-146.31;71.35
31195;BME280;17819;36.316;-93.164;2022-10-13T08:20:25;114490.28;;;-146.31;72.08
31195;BME280;17819;36.316;-93.164;2022-10-13T08:22:44;114490.28;;;-146.31;72.14
31195;BME280;17819;36.316;-93.164;2022-10-13T08:24:47;114490.28;;;-146.31;73.21
31195;BME280;17819;36.316;-93.164;2022-10-13T08:26:56;114490.28;;;-146.31;73.42
31195;BME280;17819;36.316;-93.164;2022-10-13T08:29:00;114490.28;;;-146.31;74.91
31195;BME280;17819;36.316;-93.164;2022-10-13T08:31:23;114490.28;;;-146.31;75.21
31195;BME280;17819;36.316;-93.164;2022-10-13T08:33:29;114490.28;;;-146.31;74.78
31195;BME280;17819;36.316;-93.164;2022-10-13T08:35:33;114490.28;;;-146.31;74.63
31195;BME280;17819;36.316;-93.164;2022-10-13T08:37:37;114490.28;;;-146.31;75.33
31195;BME280;17819;36.316;-93.164;2022-10-13T08:39:40;114490.28;;;-146.31;76.90
31195;BME280;17819;36.316;-93.164;2022-10-13T08:41:44;114490.28;;;-146.31;75.30
31195;BME280;17819;36.316;-93.164;2022-10-13T08:43:49;114490.28;;;-146.31;75.61
31195;BME280;17819;36.316;-93.164;2022-10-13T08:46:15;114490.28;;;-146.31;76.48
31195;BME280;17819;36.316;-93.164;2022-10-13T08:48:25;114490.28;;;-146.31;76.18
31195;BME280;17819;36.316;-93.164;2022-10-13T08:50:33;114490.28;;;-146.31;76.53
31195;BME280;17819;36.316;-93.164;2022-10-13T08:52:44;114490.28;;;-146.31;76.61
31195;BME280;17819;36.316;-93.164;2022-10-13T08:54:48;114490.28;;;-146.31;76.46
31195;BME280;17819;36.316;-93.164;2022-10-13T08:56:53;114490.28;;;-146.31;77.61
31195;BME280;17819;36.316;-93.164;2022-10-13T08:58:57;114490.28;;;-146.31;77.59
31195;BME280;17819;36.316;-93.164;2022-10-13T09:01:10;114490.28;;;-146.31;78.02
31195;BME280;17819;36.316;-93.164;2022-10-13T09:05:25;114490.28;;;-146.31;78.00
31195;BME280;17819;36.316;-93.164;2022-10-13T09:07:37;114490.28;;;-146.31;78.86
31195;BME280;17819;36.316;-93.164;2022-10-13T09:09:41;114490.28;;;-146.31;78.66
31195;BME280;17819;36.316;-93.164;2022-10-13T09:11:46;114490.28;;;-146.31;78.60
31195;BME280;17819;36.316;-93.164;2022-10-13T09:13:55;114490.28;;;-146.31;78.57
31195;BME280;17819;36.316;-93.164;2022-10-13T09:15:58;114490.28;;;-146.31;79.69
31195;BME280;17819;36.316;-93.164;2022-10-13T09:18:09;114490.28;;;-146.31;79.20
31195;BME280;17819;36.316;-93.164;2022-10-13T09:20:23;114490.28;;;-146.31;80.33
31195;BME280;17819;36.316;-93.164;2022-10-13T09:22:37;114490.28;;;-146.31;81.10
31195;BME280;17819;36.316;-93.164;2022-10-13T09:24:41;114490.28;;;-146.31;82.26
31195;BME280;17819;36.316;-93.164;2022-10-13T09:26:46;114490.28;;;-146.31;80.74
31195;BME280;17819;36.316;-93.164;2022-10-13T09:28:51;114490.28;;;-146.31;81.37
31195;BME280;17819;36.316;-93.164;2022-10-13T09:35:21;114490.28;;;-146.31;82.40
31195;BME280;17819;36.316;-93.164;2022-10-13T09:37:25;114490.28;;;-146.31;81.06
31195;BME280;17819;36.316;-93.164;2022-10-13T09:39:34;114490.28;;;-146.31;82.13
31195;BME280;17819;36.316;-93.164;2022-10-13T09:41:38;114490.28;;;-146.31;81.25
31195;BME280;17819;36.316;-93.164;2022-10-13T09:46:31;114490.28;;;-146.31;82.54
31195;BME280;17819;36.316;-93.164;2022-10-13T09:48:34;114490.28;;;-146.31;82.77
31195;BME280;17819;36.316;-93.164;2022-10-13T09:50:46;114490.28;;;-146.31;83.28
31195;BME280;17819;36.316;-93.164;2022-10-13T09:52:50;114490.28;;;-146.31;83.44
31195;BME280;17819;36.316;-93.164;2022-10-13T09:54:56;114490.28;;;-146.31;83.85
31195;BME280;17819;36.316;-93.164;2022-10-13T09:57:01;114490.28;;;-146.31;83.93
31195;BME280;17819;36.316;-93.164;2022-10-13T09:59:08;114490.28;;;-146.31;83.33
31195;BME280;17819;36.316;-93.164;2022-10-13T10:01:21;114490.28;;;-146.31;86.03
31195;BME280;17819;36.316;-93.164;2022-10-13T10:03:33;114490.28;;;-146.31;83.14
31195;BME280;17819;36.316;-93.164;2022-10-13T10:07:55;114490.28;;;-146.31;79.09
31195;BME280;17819;36.316;-93.164;2022-10-13T10:10:05;114490.28;;;-146.31;77.68
31195;BME280;17819;36.316;-93.164;2022-10-13T10:12:17;114490.28;;;-146.31;75.53
31195;BME280;17819;36.316;-93.164;2022-10-13T10:14:33;114490.28;;;-146.31;74.35
31195;BME280;17819;36.316;-93.164;2022-10-13T10:16:40;114490.28;;;-146.31;73.72
31195;BME280;17819;36.316;-93.164;2022-10-13T10:19:02;114490.28;;;-146.31;72.77
31195;BME280;17819;36.316;-93.164;2022-10-13T10:25:44;114490.28;;;-146.31;74.51
31195;BME280;17819;36.316;-93.164;2022-10-13T10:27:52;114490.28;;;-146.31;76.89
31195;BME280;17819;36.316;-93.164;2022-10-13T10:30:03;114490.28;;;-146.31;77.23
31195;BME280;17819;36.316;-93.164;2022-10-13T10:32:10;114490.28;;;-146.31;77.91
31195;BME280;17819;36.316;-93.164;2022-10-13T10:36:40;114490.28;;;-146.31;80.23
31195;BME280;17819;36.316;-93.164;2022-10-13T10:38:47;114490.28;;;-146.31;80.61
31195;BME280;17819;36.316;-93.164;2022-10-13T10:45:25;114490.28;;;-146.31;82.50
31195;BME280;17819;36.316;-93.164;2022-10-13T10:47:37;114490.28;;;-146.31;81.89
31195;BME280;17819;36.316;-93.164;2022-10-13T10:49:42;114490.28;;;-146.31;83.31
31195;BME280;17819;36.316;-93.164;2022-10-13T10:51:46;114490.28;;;-146.31;82.79
31195;BME280;17819;36.316;-93.164;2022-10-13T10:55:55;114490.28;;;-146.31;83.82
31195;BME280;17819;36.316;-93.164;2022-10-13T10:58:11;114490.28;;;-146.31;84.06
31195;BME280;17819;36.316;-93.164;2022-10-13T11:00:19;114490.28;;;-146.31;82.63
31195;BME280;17819;36.316;-93.164;2022-10-13T11:04:52;114490.28;;;-146.31;83.69
31195;BME280;17819;36.316;-93.164;2022-10-13T11:06:58;114490.28;;;-146.31;84.29
31195;BME280;17819;36.316;-93.164;2022-10-13T11:09:03;114490.28;;;-146.31;82.86